sensor_id;sensor_type;location;lat;lon;timestamp;P1;durP1;ratioP1;P2;durP2;ratioP2
42260;SDS011;27926;48.062;7.474;2022-08-03T00:01:38;7.72;;;2.53;;
42260;SDS011;27926;48.062;7.474;2022-08-03T00:04:06;3.58;;;2.25;;
42260;SDS011;27926;48.062;7.474;2022-08-03T00:06:31;3.40;;;2.13;;
42260;SDS011;27926;48.062;7.474;2022-08-03T00:08:56;2.83;;;2.00;;
42260;SDS011;27926;48.062;7.474;2022-08-03T00:11:21;3.20;;;2.03;;
42260;SDS011;27926;48.062;7.474;2022-08-03T00:13:46;3.28;;;2.20;;
42260;SDS011;27926;48.062;7.474;2022-08-03T00:16:10;7.78;;;2.38;;
42260;SDS011;27926;48.062;7.474;2022-08-03T00:18:36;3.15;;;2.00;;
42260;SDS011;27926;48.062;7.474;2022-08-03T00:21:01;10.20;;;2.17;;
42260;SDS011;27926;48.062;7.474;2022-08-03T00:23:26;7.30;;;2.20;;
42260;SDS011;27926;48.062;7.474;2022-08-03T00:25:51;3.30;;;2.03;;
42260;SDS011;27926;48.062;7.474;2022-08-03T00:28:16;2.38;;;2.10;;
42260;SDS011;27926;48.062;7.474;2022-08-03T00:30:40;4.32;;;2.05;;
42260;SDS011;27926;48.062;7.474;2022-08-03T00:33:05;7.18;;;2.45;;
42260;SDS011;27926;48.062;7.474;2022-08-03T00:35:30;3.55;;;1.73;;
42260;SDS011;27926;48.062;7.474;2022-08-03T00:37:55;3.13;;;1.77;;
42260;SDS011;27926;48.062;7.474;2022-08-03T00:40:20;2.35;;;2.15;;
42260;SDS011;27926;48.062;7.474;2022-08-03T00:42:49;7.07;;;2.30;;
42260;SDS011;27926;48.062;7.474;2022-08-03T00:45:21;6.55;;;2.20;;
42260;SDS011;27926;48.062;7.474;2022-08-03T00:47:48;4.15;;;2.20;;
42260;SDS011;27926;48.062;7.474;2022-08-03T00:50:13;5.93;;;2.17;;
42260;SDS011;27926;48.062;7.474;2022-08-03T00:52:39;4.05;;;2.10;;
42260;SDS011;27926;48.062;7.474;2022-08-03T00:55:04;3.67;;;2.20;;
42260;SDS011;27926;48.062;7.474;2022-08-03T00:57:29;5.70;;;2.15;;
42260;SDS011;27926;48.062;7.474;2022-08-03T00:59:54;2.75;;;2.05;;
42260;SDS011;27926;48.062;7.474;2022-08-03T01:02:19;5.78;;;2.17;;
42260;SDS011;27926;48.062;7.474;2022-08-03T01:04:44;3.67;;;2.13;;
42260;SDS011;27926;48.062;7.474;2022-08-03T01:07:13;2.92;;;1.88;;
42260;SDS011;27926;48.062;7.474;2022-08-03T01:12:51;3.63;;;2.00;;
42260;SDS011;27926;48.062;7.474;2022-08-03T01:15:39;4.63;;;2.05;;
42260;SDS011;27926;48.062;7.474;2022-08-03T01:18:21;3.42;;;2.67;;
42260;SDS011;27926;48.062;7.474;2022-08-03T01:21:01;7.70;;;2.10;;
42260;SDS011;27926;48.062;7.474;2022-08-03T01:23:34;3.03;;;1.90;;
42260;SDS011;27926;48.062;7.474;2022-08-03T01:31:14;3.78;;;1.95;;
42260;SDS011;27926;48.062;7.474;2022-08-03T01:33:46;3.78;;;2.28;;
42260;SDS011;27926;48.062;7.474;2022-08-03T01:36:17;3.60;;;2.35;;
42260;SDS011;27926;48.062;7.474;2022-08-03T01:38:48;4.45;;;2.65;;
42260;SDS011;27926;48.062;7.474;2022-08-03T01:41:24;3.28;;;2.20;;
42260;SDS011;27926;48.062;7.474;2022-08-03T01:43:54;3.00;;;2.35;;
42260;SDS011;27926;48.062;7.474;2022-08-03T01:46:22;3.78;;;2.38;;
42260;SDS011;27926;48.062;7.474;2022-08-03T01:48:48;2.47;;;1.70;;
42260;SDS011;27926;48.062;7.474;2022-08-03T01:51:14;2.65;;;1.85;;
42260;SDS011;27926;48.062;7.474;2022-08-03T01:53:41;3.95;;;2.40;;
42260;SDS011;27926;48.062;7.474;2022-08-03T01:56:06;4.03;;;2.30;;
42260;SDS011;27926;48.062;7.474;2022-08-03T01:58:33;3.65;;;1.88;;
42260;SDS011;27926;48.062;7.474;2022-08-03T02:00:59;2.35;;;1.60;;
42260;SDS011;27926;48.062;7.474;2022-08-03T02:03:27;3.40;;;1.85;;
42260;SDS011;27926;48.062;7.474;2022-08-03T02:05:54;3.05;;;2.30;;
42260;SDS011;27926;48.062;7.474;2022-08-03T02:08:19;5.15;;;2.13;;
42260;SDS011;27926;48.062;7.474;2022-08-03T02:10:47;3.22;;;1.75;;
42260;SDS011;27926;48.062;7.474;2022-08-03T02:13:12;4.22;;;2.25;;
42260;SDS011;27926;48.062;7.474;2022-08-03T02:15:40;5.18;;;2.58;;
42260;SDS011;27926;48.062;7.474;2022-08-03T02:18:06;3.35;;;2.17;;
42260;SDS011;27926;48.062;7.474;2022-08-03T02:20:33;2.55;;;1.80;;
42260;SDS011;27926;48.062;7.474;2022-08-03T02:23:00;4.88;;;2.38;;
42260;SDS011;27926;48.062;7.474;2022-08-03T02:25:25;2.50;;;1.70;;
42260;SDS011;27926;48.062;7.474;2022-08-03T02:27:52;2.47;;;2.00;;
42260;SDS011;27926;48.062;7.474;2022-08-03T02:30:20;4.65;;;2.83;;
42260;SDS011;27926;48.062;7.474;2022-08-03T02:32:52;4.47;;;2.25;;
42260;SDS011;27926;48.062;7.474;2022-08-03T02:35:18;7.15;;;1.75;;
42260;SDS011;27926;48.062;7.474;2022-08-03T02:37:46;4.20;;;1.75;;
42260;SDS011;27926;48.062;7.474;2022-08-03T02:40:14;3.10;;;2.28;;
42260;SDS011;27926;48.062;7.474;2022-08-03T02:42:41;2.03;;;1.83;;
42260;SDS011;27926;48.062;7.474;2022-08-03T02:45:09;3.78;;;2.22;;
42260;SDS011;27926;48.062;7.474;2022-08-03T02:47:37;2.65;;;2.40;;
42260;SDS011;27926;48.062;7.474;2022-08-03T02:50:04;5.50;;;2.42;;
42260;SDS011;27926;48.062;7.474;2022-08-03T02:52:30;2.42;;;1.83;;
42260;SDS011;27926;48.062;7.474;2022-08-03T02:54:56;3.30;;;2.22;;
42260;SDS011;27926;48.062;7.474;2022-08-03T02:57:24;6.40;;;2.40;;
42260;SDS011;27926;48.062;7.474;2022-08-03T02:59:51;3.35;;;2.13;;
42260;SDS011;27926;48.062;7.474;2022-08-03T03:02:17;1.95;;;1.58;;
42260;SDS011;27926;48.062;7.474;2022-08-03T03:04:43;9.25;;;1.88;;
42260;SDS011;27926;48.062;7.474;2022-08-03T03:07:10;3.25;;;2.22;;
42260;SDS011;27926;48.062;7.474;2022-08-03T03:09:36;3.33;;;2.35;;
42260;SDS011;27926;48.062;7.474;2022-08-03T03:12:04;2.63;;;2.20;;
42260;SDS011;27926;48.062;7.474;2022-08-03T03:14:31;2.30;;;1.92;;
42260;SDS011;27926;48.062;7.474;2022-08-03T03:16:57;3.35;;;1.73;;
42260;SDS011;27926;48.062;7.474;2022-08-03T03:19:22;2.72;;;2.00;;
42260;SDS011;27926;48.062;7.474;2022-08-03T03:21:48;2.83;;;2.33;;
42260;SDS011;27926;48.062;7.474;2022-08-03T03:24:13;5.47;;;3.47;;
42260;SDS011;27926;48.062;7.474;2022-08-03T03:26:39;3.45;;;2.20;;
42260;SDS011;27926;48.062;7.474;2022-08-03T03:29:04;2.25;;;1.95;;
42260;SDS011;27926;48.062;7.474;2022-08-03T03:31:30;2.78;;;2.05;;
42260;SDS011;27926;48.062;7.474;2022-08-03T03:33:58;2.28;;;1.88;;
42260;SDS011;27926;48.062;7.474;2022-08-03T03:36:23;3.08;;;1.88;;
42260;SDS011;27926;48.062;7.474;2022-08-03T03:38:47;2.83;;;2.25;;
42260;SDS011;27926;48.062;7.474;2022-08-03T03:41:13;3.80;;;2.22;;
42260;SDS011;27926;48.062;7.474;2022-08-03T03:43:38;2.25;;;1.63;;
42260;SDS011;27926;48.062;7.474;2022-08-03T03:46:03;3.67;;;2.05;;
42260;SDS011;27926;48.062;7.474;2022-08-03T03:48:28;4.15;;;2.10;;
42260;SDS011;27926;48.062;7.474;2022-08-03T03:50:52;2.72;;;2.13;;
42260;SDS011;27926;48.062;7.474;2022-08-03T03:53:17;2.60;;;1.92;;
42260;SDS011;27926;48.062;7.474;2022-08-03T03:55:42;3.25;;;1.85;;
42260;SDS011;27926;48.062;7.474;2022-08-03T03:58:07;3.58;;;2.08;;
42260;SDS011;27926;48.062;7.474;2022-08-03T04:00:32;3.30;;;2.33;;
42260;SDS011;27926;48.062;7.474;2022-08-03T04:02:57;6.03;;;2.27;;
42260;SDS011;27926;48.062;7.474;2022-08-03T04:05:22;2.60;;;2.10;;
42260;SDS011;27926;48.062;7.474;2022-08-03T04:08:06;5.38;;;2.42;;
42260;SDS011;27926;48.062;7.474;2022-08-03T04:13:38;2.28;;;2.05;;
42260;SDS011;27926;48.062;7.474;2022-08-03T04:16:06;3.00;;;2.20;;
42260;SDS011;27926;48.062;7.474;2022-08-03T04:18:33;6.47;;;3.10;;
42260;SDS011;27926;48.062;7.474;2022-08-03T04:21:02;2.70;;;2.15;;
42260;SDS011;27926;48.062;7.474;2022-08-03T04:23:30;4.45;;;2.72;;
42260;SDS011;27926;48.062;7.474;2022-08-03T04:25:57;3.67;;;2.05;;
42260;SDS011;27926;48.062;7.474;2022-08-03T04:28:25;5.90;;;2.80;;
42260;SDS011;27926;48.062;7.474;2022-08-03T04:30:51;3.88;;;2.22;;
42260;SDS011;27926;48.062;7.474;2022-08-03T04:33:17;3.50;;;2.42;;
42260;SDS011;27926;48.062;7.474;2022-08-03T04:35:43;3.38;;;2.22;;
42260;SDS011;27926;48.062;7.474;2022-08-03T04:38:09;6.70;;;3.22;;
42260;SDS011;27926;48.062;7.474;2022-08-03T04:40:38;2.92;;;2.00;;
42260;SDS011;27926;48.062;7.474;2022-08-03T04:43:05;2.75;;;1.98;;
42260;SDS011;27926;48.062;7.474;2022-08-03T04:45:32;3.88;;;1.90;;
42260;SDS011;27926;48.062;7.474;2022-08-03T04:50:24;2.70;;;1.63;;
42260;SDS011;27926;48.062;7.474;2022-08-03T04:52:50;4.93;;;2.28;;
42260;SDS011;27926;48.062;7.474;2022-08-03T04:55:25;3.15;;;2.03;;
42260;SDS011;27926;48.062;7.474;2022-08-03T04:57:53;4.22;;;2.10;;
42260;SDS011;27926;48.062;7.474;2022-08-03T05:00:19;1.75;;;1.35;;
42260;SDS011;27926;48.062;7.474;2022-08-03T05:02:44;2.33;;;1.98;;
42260;SDS011;27926;48.062;7.474;2022-08-03T05:05:09;5.90;;;2.08;;
42260;SDS011;27926;48.062;7.474;2022-08-03T05:07:34;3.33;;;1.90;;
42260;SDS011;27926;48.062;7.474;2022-08-03T05:09:59;2.53;;;1.83;;
42260;SDS011;27926;48.062;7.474;2022-08-03T05:12:24;4.30;;;2.30;;
42260;SDS011;27926;48.062;7.474;2022-08-03T05:14:48;3.37;;;1.87;;
42260;SDS011;27926;48.062;7.474;2022-08-03T05:17:13;2.37;;;1.97;;
42260;SDS011;27926;48.062;7.474;2022-08-03T05:19:37;2.47;;;1.67;;
42260;SDS011;27926;48.062;7.474;2022-08-03T05:22:02;2.53;;;1.60;;
42260;SDS011;27926;48.062;7.474;2022-08-03T05:24:26;4.13;;;1.90;;
42260;SDS011;27926;48.062;7.474;2022-08-03T05:26:51;3.80;;;1.67;;
42260;SDS011;27926;48.062;7.474;2022-08-03T05:29:16;2.40;;;1.40;;
42260;SDS011;27926;48.062;7.474;2022-08-03T05:31:41;4.57;;;2.33;;
42260;SDS011;27926;48.062;7.474;2022-08-03T05:34:05;2.00;;;1.80;;
42260;SDS011;27926;48.062;7.474;2022-08-03T05:36:30;2.77;;;1.73;;
42260;SDS011;27926;48.062;7.474;2022-08-03T05:38:55;4.17;;;1.97;;
42260;SDS011;27926;48.062;7.474;2022-08-03T05:41:19;2.10;;;1.90;;
42260;SDS011;27926;48.062;7.474;2022-08-03T05:43:44;2.87;;;1.57;;
42260;SDS011;27926;48.062;7.474;2022-08-03T05:46:09;6.32;;;1.50;;
42260;SDS011;27926;48.062;7.474;2022-08-03T05:48:34;3.05;;;1.52;;
42260;SDS011;27926;48.062;7.474;2022-08-03T05:50:59;4.10;;;1.77;;
42260;SDS011;27926;48.062;7.474;2022-08-03T05:53:23;3.70;;;1.90;;
42260;SDS011;27926;48.062;7.474;2022-08-03T05:55:49;8.35;;;1.75;;
42260;SDS011;27926;48.062;7.474;2022-08-03T05:58:13;2.83;;;1.60;;
42260;SDS011;27926;48.062;7.474;2022-08-03T06:00:38;4.03;;;1.90;;
42260;SDS011;27926;48.062;7.474;2022-08-03T06:03:03;2.50;;;1.67;;
42260;SDS011;27926;48.062;7.474;2022-08-03T06:05:28;2.10;;;1.60;;
42260;SDS011;27926;48.062;7.474;2022-08-03T06:07:53;3.30;;;1.83;;
42260;SDS011;27926;48.062;7.474;2022-08-03T06:10:17;2.47;;;1.73;;
42260;SDS011;27926;48.062;7.474;2022-08-03T06:12:43;3.08;;;1.73;;
42260;SDS011;27926;48.062;7.474;2022-08-03T06:15:10;2.35;;;1.48;;
42260;SDS011;27926;48.062;7.474;2022-08-03T06:17:42;3.30;;;1.50;;
42260;SDS011;27926;48.062;7.474;2022-08-03T06:20:08;2.63;;;1.52;;
42260;SDS011;27926;48.062;7.474;2022-08-03T06:24:58;3.17;;;1.45;;
42260;SDS011;27926;48.062;7.474;2022-08-03T06:27:22;2.70;;;1.70;;
42260;SDS011;27926;48.062;7.474;2022-08-03T06:29:47;4.40;;;1.40;;
42260;SDS011;27926;48.062;7.474;2022-08-03T06:32:12;1.93;;;1.70;;
42260;SDS011;27926;48.062;7.474;2022-08-03T06:34:37;2.00;;;1.80;;
42260;SDS011;27926;48.062;7.474;2022-08-03T06:37:02;3.30;;;1.95;;
42260;SDS011;27926;48.062;7.474;2022-08-03T06:39:26;7.90;;;2.33;;
42260;SDS011;27926;48.062;7.474;2022-08-03T06:41:51;2.00;;;1.63;;
42260;SDS011;27926;48.062;7.474;2022-08-03T06:44:16;2.35;;;1.58;;
42260;SDS011;27926;48.062;7.474;2022-08-03T06:46:41;1.58;;;1.30;;
42260;SDS011;27926;48.062;7.474;2022-08-03T06:49:06;4.03;;;1.98;;
42260;SDS011;27926;48.062;7.474;2022-08-03T06:51:31;2.35;;;1.30;;
42260;SDS011;27926;48.062;7.474;2022-08-03T06:53:55;3.43;;;1.53;;
42260;SDS011;27926;48.062;7.474;2022-08-03T06:56:20;2.13;;;1.50;;
42260;SDS011;27926;48.062;7.474;2022-08-03T06:58:44;10.93;;;2.07;;
42260;SDS011;27926;48.062;7.474;2022-08-03T07:01:10;8.02;;;2.00;;
42260;SDS011;27926;48.062;7.474;2022-08-03T07:03:35;1.97;;;1.43;;
42260;SDS011;27926;48.062;7.474;2022-08-03T07:05:59;3.23;;;1.90;;
42260;SDS011;27926;48.062;7.474;2022-08-03T07:08:24;4.77;;;1.77;;
42260;SDS011;27926;48.062;7.474;2022-08-03T07:10:48;3.63;;;1.87;;
42260;SDS011;27926;48.062;7.474;2022-08-03T07:13:13;2.00;;;1.80;;
42260;SDS011;27926;48.062;7.474;2022-08-03T07:15:38;2.50;;;1.93;;
42260;SDS011;27926;48.062;7.474;2022-08-03T07:18:03;5.63;;;2.30;;
42260;SDS011;27926;48.062;7.474;2022-08-03T07:20:27;5.53;;;2.07;;
42260;SDS011;27926;48.062;7.474;2022-08-03T07:22:52;2.30;;;2.00;;
42260;SDS011;27926;48.062;7.474;2022-08-03T07:25:17;3.30;;;2.23;;
42260;SDS011;27926;48.062;7.474;2022-08-03T07:27:46;3.40;;;2.25;;
42260;SDS011;27926;48.062;7.474;2022-08-03T07:30:11;4.78;;;1.85;;
42260;SDS011;27926;48.062;7.474;2022-08-03T07:35:02;6.38;;;2.47;;
42260;SDS011;27926;48.062;7.474;2022-08-03T07:37:28;3.83;;;2.30;;
42260;SDS011;27926;48.062;7.474;2022-08-03T07:39:53;5.78;;;1.92;;
42260;SDS011;27926;48.062;7.474;2022-08-03T07:42:18;3.60;;;2.37;;
42260;SDS011;27926;48.062;7.474;2022-08-03T07:44:43;3.35;;;2.30;;
42260;SDS011;27926;48.062;7.474;2022-08-03T07:47:08;3.23;;;1.80;;
42260;SDS011;27926;48.062;7.474;2022-08-03T07:49:32;5.00;;;1.97;;
42260;SDS011;27926;48.062;7.474;2022-08-03T07:51:57;3.20;;;2.47;;
42260;SDS011;27926;48.062;7.474;2022-08-03T07:54:40;3.95;;;2.60;;
42260;SDS011;27926;48.062;7.474;2022-08-03T07:57:05;2.63;;;1.83;;
42260;SDS011;27926;48.062;7.474;2022-08-03T07:59:29;2.90;;;1.90;;
42260;SDS011;27926;48.062;7.474;2022-08-03T08:01:54;3.80;;;1.77;;
42260;SDS011;27926;48.062;7.474;2022-08-03T08:04:19;3.28;;;2.22;;
42260;SDS011;27926;48.062;7.474;2022-08-03T08:06:44;2.23;;;1.87;;
42260;SDS011;27926;48.062;7.474;2022-08-03T08:09:08;2.53;;;2.20;;
42260;SDS011;27926;48.062;7.474;2022-08-03T08:13:59;3.00;;;1.67;;
42260;SDS011;27926;48.062;7.474;2022-08-03T08:16:25;3.70;;;1.90;;
42260;SDS011;27926;48.062;7.474;2022-08-03T08:18:50;4.67;;;1.83;;
42260;SDS011;27926;48.062;7.474;2022-08-03T08:21:15;4.20;;;2.27;;
42260;SDS011;27926;48.062;7.474;2022-08-03T08:23:39;2.00;;;1.67;;
42260;SDS011;27926;48.062;7.474;2022-08-03T08:26:04;2.83;;;2.13;;
42260;SDS011;27926;48.062;7.474;2022-08-03T08:28:28;4.07;;;2.33;;
42260;SDS011;27926;48.062;7.474;2022-08-03T08:30:53;2.97;;;1.97;;
42260;SDS011;27926;48.062;7.474;2022-08-03T08:33:17;4.73;;;2.13;;
42260;SDS011;27926;48.062;7.474;2022-08-03T08:35:42;2.50;;;1.90;;
42260;SDS011;27926;48.062;7.474;2022-08-03T08:38:07;4.27;;;2.30;;
42260;SDS011;27926;48.062;7.474;2022-08-03T08:40:31;3.07;;;2.23;;
42260;SDS011;27926;48.062;7.474;2022-08-03T08:42:56;2.07;;;1.73;;
42260;SDS011;27926;48.062;7.474;2022-08-03T08:45:21;4.57;;;2.33;;
42260;SDS011;27926;48.062;7.474;2022-08-03T08:47:46;2.13;;;1.80;;
42260;SDS011;27926;48.062;7.474;2022-08-03T08:50:12;5.55;;;2.00;;
42260;SDS011;27926;48.062;7.474;2022-08-03T08:52:40;1.85;;;1.75;;
42260;SDS011;27926;48.062;7.474;2022-08-03T08:55:07;3.97;;;2.30;;
42260;SDS011;27926;48.062;7.474;2022-08-03T08:57:34;2.05;;;1.75;;
42260;SDS011;27926;48.062;7.474;2022-08-03T09:00:04;4.47;;;1.85;;
42260;SDS011;27926;48.062;7.474;2022-08-03T09:02:32;4.10;;;1.90;;
42260;SDS011;27926;48.062;7.474;2022-08-03T09:04:58;3.88;;;1.80;;
42260;SDS011;27926;48.062;7.474;2022-08-03T09:07:23;1.88;;;1.77;;
42260;SDS011;27926;48.062;7.474;2022-08-03T09:09:47;2.60;;;1.87;;
42260;SDS011;27926;48.062;7.474;2022-08-03T09:12:12;7.20;;;2.03;;
42260;SDS011;27926;48.062;7.474;2022-08-03T09:14:37;7.93;;;2.00;;
42260;SDS011;27926;48.062;7.474;2022-08-03T09:17:02;4.47;;;2.13;;
42260;SDS011;27926;48.062;7.474;2022-08-03T09:19:28;2.13;;;1.90;;
42260;SDS011;27926;48.062;7.474;2022-08-03T09:22:16;3.08;;;1.75;;
42260;SDS011;27926;48.062;7.474;2022-08-03T09:24:53;4.20;;;2.20;;
42260;SDS011;27926;48.062;7.474;2022-08-03T09:27:19;2.25;;;1.42;;
42260;SDS011;27926;48.062;7.474;2022-08-03T09:29:47;3.33;;;2.23;;
42260;SDS011;27926;48.062;7.474;2022-08-03T09:32:13;3.53;;;2.13;;
42260;SDS011;27926;48.062;7.474;2022-08-03T09:34:37;4.63;;;1.87;;
42260;SDS011;27926;48.062;7.474;2022-08-03T09:37:02;2.73;;;1.90;;
42260;SDS011;27926;48.062;7.474;2022-08-03T09:39:38;1.65;;;1.38;;
42260;SDS011;27926;48.062;7.474;2022-08-03T09:47:00;2.83;;;1.80;;
42260;SDS011;27926;48.062;7.474;2022-08-03T09:49:25;2.93;;;1.93;;
42260;SDS011;27926;48.062;7.474;2022-08-03T09:51:49;11.93;;;1.93;;
42260;SDS011;27926;48.062;7.474;2022-08-03T09:54:27;2.65;;;1.83;;
42260;SDS011;27926;48.062;7.474;2022-08-03T09:56:52;2.35;;;1.48;;
42260;SDS011;27926;48.062;7.474;2022-08-03T09:59:24;1.67;;;1.57;;
42260;SDS011;27926;48.062;7.474;2022-08-03T10:01:53;1.52;;;1.42;;
42260;SDS011;27926;48.062;7.474;2022-08-03T10:04:19;3.25;;;1.77;;
42260;SDS011;27926;48.062;7.474;2022-08-03T10:06:44;3.00;;;1.60;;
42260;SDS011;27926;48.062;7.474;2022-08-03T10:09:23;6.18;;;1.88;;
42260;SDS011;27926;48.062;7.474;2022-08-03T10:11:48;3.57;;;1.50;;
42260;SDS011;27926;48.062;7.474;2022-08-03T10:14:13;4.07;;;1.60;;
42260;SDS011;27926;48.062;7.474;2022-08-03T10:16:44;2.67;;;1.85;;
42260;SDS011;27926;48.062;7.474;2022-08-03T10:19:10;2.05;;;1.52;;
42260;SDS011;27926;48.062;7.474;2022-08-03T10:21:36;1.48;;;1.38;;
42260;SDS011;27926;48.062;7.474;2022-08-03T10:24:03;1.48;;;1.38;;
42260;SDS011;27926;48.062;7.474;2022-08-03T10:26:30;1.70;;;1.60;;
42260;SDS011;27926;48.062;7.474;2022-08-03T10:28:59;2.00;;;1.80;;
42260;SDS011;27926;48.062;7.474;2022-08-03T10:31:30;3.20;;;1.67;;
42260;SDS011;27926;48.062;7.474;2022-08-03T10:34:10;1.85;;;1.50;;
42260;SDS011;27926;48.062;7.474;2022-08-03T10:36:40;2.58;;;1.75;;
42260;SDS011;27926;48.062;7.474;2022-08-03T10:39:06;1.63;;;1.52;;
42260;SDS011;27926;48.062;7.474;2022-08-03T10:46:32;1.48;;;1.35;;
42260;SDS011;27926;48.062;7.474;2022-08-03T10:51:22;3.45;;;1.40;;
42260;SDS011;27926;48.062;7.474;2022-08-03T10:53:47;1.98;;;1.38;;
42260;SDS011;27926;48.062;7.474;2022-08-03T10:56:54;1.67;;;1.52;;
42260;SDS011;27926;48.062;7.474;2022-08-03T11:02:14;5.25;;;1.50;;
42260;SDS011;27926;48.062;7.474;2022-08-03T11:04:38;1.90;;;1.53;;
42260;SDS011;27926;48.062;7.474;2022-08-03T11:07:20;1.33;;;1.13;;
42260;SDS011;27926;48.062;7.474;2022-08-03T11:09:47;2.85;;;1.30;;
42260;SDS011;27926;48.062;7.474;2022-08-03T11:12:26;1.90;;;1.20;;
42260;SDS011;27926;48.062;7.474;2022-08-03T11:14:55;2.50;;;1.60;;
42260;SDS011;27926;48.062;7.474;2022-08-03T11:17:22;1.88;;;1.60;;
42260;SDS011;27926;48.062;7.474;2022-08-03T11:19:48;2.25;;;1.75;;
42260;SDS011;27926;48.062;7.474;2022-08-03T11:22:14;1.60;;;1.27;;
42260;SDS011;27926;48.062;7.474;2022-08-03T11:27:19;2.10;;;1.40;;
42260;SDS011;27926;48.062;7.474;2022-08-03T11:29:54;5.63;;;1.58;;
42260;SDS011;27926;48.062;7.474;2022-08-03T11:35:07;2.00;;;1.25;;
42260;SDS011;27926;48.062;7.474;2022-08-03T11:37:34;2.38;;;1.70;;
42260;SDS011;27926;48.062;7.474;2022-08-03T11:40:00;2.80;;;1.50;;
42260;SDS011;27926;48.062;7.474;2022-08-03T11:44:52;7.43;;;1.60;;
42260;SDS011;27926;48.062;7.474;2022-08-03T11:47:22;1.52;;;1.42;;
42260;SDS011;27926;48.062;7.474;2022-08-03T11:49:50;1.55;;;1.45;;
42260;SDS011;27926;48.062;7.474;2022-08-03T11:52:17;1.45;;;1.35;;
42260;SDS011;27926;48.062;7.474;2022-08-03T11:54:42;1.33;;;1.23;;
42260;SDS011;27926;48.062;7.474;2022-08-03T11:57:07;1.40;;;1.30;;
42260;SDS011;27926;48.062;7.474;2022-08-03T11:59:32;6.87;;;2.33;;
42260;SDS011;27926;48.062;7.474;2022-08-03T12:02:07;1.45;;;1.35;;
42260;SDS011;27926;48.062;7.474;2022-08-03T12:04:51;5.93;;;1.25;;
42260;SDS011;27926;48.062;7.474;2022-08-03T12:07:17;1.42;;;1.08;;
42260;SDS011;27926;48.062;7.474;2022-08-03T12:09:42;1.30;;;1.20;;
42260;SDS011;27926;48.062;7.474;2022-08-03T12:12:08;1.67;;;1.58;;
42260;SDS011;27926;48.062;7.474;2022-08-03T12:14:32;3.10;;;1.30;;
42260;SDS011;27926;48.062;7.474;2022-08-03T12:16:57;2.30;;;0.70;;
42260;SDS011;27926;48.062;7.474;2022-08-03T12:19:24;1.97;;;1.20;;
42260;SDS011;27926;48.062;7.474;2022-08-03T12:21:49;1.98;;;1.10;;
42260;SDS011;27926;48.062;7.474;2022-08-03T12:24:14;3.00;;;1.33;;
42260;SDS011;27926;48.062;7.474;2022-08-03T12:29:17;1.05;;;0.95;;
42260;SDS011;27926;48.062;7.474;2022-08-03T12:31:43;1.75;;;1.17;;
42260;SDS011;27926;48.062;7.474;2022-08-03T12:34:08;1.80;;;1.42;;
42260;SDS011;27926;48.062;7.474;2022-08-03T12:36:33;1.30;;;1.20;;
42260;SDS011;27926;48.062;7.474;2022-08-03T12:38:59;1.80;;;1.00;;
42260;SDS011;27926;48.062;7.474;2022-08-03T12:41:31;1.42;;;1.33;;
42260;SDS011;27926;48.062;7.474;2022-08-03T12:43:58;1.63;;;0.90;;
42260;SDS011;27926;48.062;7.474;2022-08-03T12:46:27;3.70;;;1.70;;
42260;SDS011;27926;48.062;7.474;2022-08-03T12:54:05;0.82;;;0.80;;
42260;SDS011;27926;48.062;7.474;2022-08-03T12:56:30;2.50;;;1.55;;
42260;SDS011;27926;48.062;7.474;2022-08-03T12:58:55;1.67;;;0.90;;
42260;SDS011;27926;48.062;7.474;2022-08-03T13:01:20;1.57;;;1.07;;
42260;SDS011;27926;48.062;7.474;2022-08-03T13:03:48;1.60;;;1.08;;
42260;SDS011;27926;48.062;7.474;2022-08-03T13:06:15;0.95;;;0.95;;
42260;SDS011;27926;48.062;7.474;2022-08-03T13:08:41;1.42;;;1.20;;
42260;SDS011;27926;48.062;7.474;2022-08-03T13:11:16;3.55;;;1.10;;
42260;SDS011;27926;48.062;7.474;2022-08-03T13:13:42;7.13;;;1.10;;
42260;SDS011;27926;48.062;7.474;2022-08-03T13:16:07;1.13;;;1.10;;
42260;SDS011;27926;48.062;7.474;2022-08-03T13:18:31;1.77;;;1.15;;
42260;SDS011;27926;48.062;7.474;2022-08-03T13:20:56;4.57;;;0.95;;
42260;SDS011;27926;48.062;7.474;2022-08-03T13:23:20;1.07;;;1.00;;
42260;SDS011;27926;48.062;7.474;2022-08-03T13:25:45;1.17;;;1.07;;
42260;SDS011;27926;48.062;7.474;2022-08-03T13:28:10;1.60;;;0.80;;
42260;SDS011;27926;48.062;7.474;2022-08-03T13:30:34;1.80;;;1.03;;
42260;SDS011;27926;48.062;7.474;2022-08-03T13:32:59;2.77;;;1.40;;
42260;SDS011;27926;48.062;7.474;2022-08-03T13:35:24;1.55;;;0.95;;
42260;SDS011;27926;48.062;7.474;2022-08-03T13:37:48;1.08;;;0.98;;
42260;SDS011;27926;48.062;7.474;2022-08-03T13:40:13;1.40;;;1.30;;
42260;SDS011;27926;48.062;7.474;2022-08-03T13:42:38;8.60;;;1.13;;
42260;SDS011;27926;48.062;7.474;2022-08-03T13:45:02;3.37;;;0.90;;
42260;SDS011;27926;48.062;7.474;2022-08-03T13:49:52;1.10;;;1.00;;
42260;SDS011;27926;48.062;7.474;2022-08-03T13:52:17;1.13;;;1.02;;
42260;SDS011;27926;48.062;7.474;2022-08-03T13:57:07;0.80;;;0.80;;
42260;SDS011;27926;48.062;7.474;2022-08-03T13:59:31;0.93;;;0.90;;
42260;SDS011;27926;48.062;7.474;2022-08-03T14:01:56;3.70;;;1.37;;
42260;SDS011;27926;48.062;7.474;2022-08-03T14:04:21;1.23;;;1.10;;
42260;SDS011;27926;48.062;7.474;2022-08-03T14:06:46;0.95;;;0.82;;
42260;SDS011;27926;48.062;7.474;2022-08-03T14:09:14;2.03;;;1.00;;
42260;SDS011;27926;48.062;7.474;2022-08-03T14:11:39;1.75;;;0.93;;
42260;SDS011;27926;48.062;7.474;2022-08-03T14:14:04;0.80;;;0.80;;
42260;SDS011;27926;48.062;7.474;2022-08-03T14:16:29;3.00;;;2.03;;
42260;SDS011;27926;48.062;7.474;2022-08-03T14:18:54;1.70;;;1.30;;
42260;SDS011;27926;48.062;7.474;2022-08-03T14:21:18;0.87;;;0.87;;
42260;SDS011;27926;48.062;7.474;2022-08-03T14:23:43;1.30;;;0.85;;
42260;SDS011;27926;48.062;7.474;2022-08-03T14:26:08;1.17;;;1.07;;
42260;SDS011;27926;48.062;7.474;2022-08-03T14:28:35;3.10;;;1.08;;
42260;SDS011;27926;48.062;7.474;2022-08-03T14:31:00;1.23;;;1.13;;
42260;SDS011;27926;48.062;7.474;2022-08-03T14:33:25;2.28;;;1.05;;
42260;SDS011;27926;48.062;7.474;2022-08-03T14:35:51;3.92;;;1.33;;
42260;SDS011;27926;48.062;7.474;2022-08-03T14:38:16;1.23;;;1.13;;
42260;SDS011;27926;48.062;7.474;2022-08-03T14:40:41;2.20;;;1.25;;
42260;SDS011;27926;48.062;7.474;2022-08-03T14:43:09;3.80;;;1.23;;
42260;SDS011;27926;48.062;7.474;2022-08-03T14:45:33;1.23;;;1.13;;
42260;SDS011;27926;48.062;7.474;2022-08-03T14:47:58;4.30;;;1.30;;
42260;SDS011;27926;48.062;7.474;2022-08-03T14:50:23;5.07;;;1.25;;
42260;SDS011;27926;48.062;7.474;2022-08-03T14:52:48;2.28;;;1.23;;
42260;SDS011;27926;48.062;7.474;2022-08-03T14:55:12;1.63;;;1.00;;
42260;SDS011;27926;48.062;7.474;2022-08-03T14:57:37;2.13;;;0.98;;
42260;SDS011;27926;48.062;7.474;2022-08-03T15:00:02;1.50;;;1.30;;
42260;SDS011;27926;48.062;7.474;2022-08-03T15:02:27;1.70;;;1.30;;
42260;SDS011;27926;48.062;7.474;2022-08-03T15:07:17;2.22;;;1.20;;
42260;SDS011;27926;48.062;7.474;2022-08-03T15:09:43;1.50;;;1.40;;
42260;SDS011;27926;48.062;7.474;2022-08-03T15:12:07;3.43;;;1.20;;
42260;SDS011;27926;48.062;7.474;2022-08-03T15:14:32;1.55;;;1.33;;
42260;SDS011;27926;48.062;7.474;2022-08-03T15:16:57;6.47;;;1.40;;
42260;SDS011;27926;48.062;7.474;2022-08-03T15:19:22;1.63;;;1.52;;
42260;SDS011;27926;48.062;7.474;2022-08-03T15:21:47;1.27;;;0.90;;
42260;SDS011;27926;48.062;7.474;2022-08-03T15:24:11;1.70;;;1.10;;
42260;SDS011;27926;48.062;7.474;2022-08-03T15:26:36;1.80;;;1.10;;
42260;SDS011;27926;48.062;7.474;2022-08-03T15:29:01;2.00;;;1.20;;
42260;SDS011;27926;48.062;7.474;2022-08-03T15:33:50;1.70;;;1.40;;
42260;SDS011;27926;48.062;7.474;2022-08-03T15:36:16;1.83;;;1.20;;
42260;SDS011;27926;48.062;7.474;2022-08-03T15:38:41;1.65;;;1.30;;
42260;SDS011;27926;48.062;7.474;2022-08-03T15:41:06;1.77;;;1.02;;
42260;SDS011;27926;48.062;7.474;2022-08-03T15:43:30;3.47;;;1.37;;
42260;SDS011;27926;48.062;7.474;2022-08-03T15:45:55;1.93;;;1.13;;